Terminal Aerodrome Forecast
Issued by NWS Springfield, MO

Home | Current Version | Previous Version | Text Only | Print | Product List | Glossary On
Versions: 1 2 3 4 5 6 7 8 9 10 11 12 13 14 15 16 17 18 19 20 21 22
000
FTUS43 KSGF 061100
TAFSGF
TAF
KSGF 061120Z 0612/0712 18010KT P6SM BKN250 WS015/22035KT
     FM061500 20013G21KT P6SM SCT040 BKN250
     FM061800 20013G21KT P6SM VCTS BKN040CB
     FM062300 20010KT P6SM SCT050 BKN120
     FM070600 22008KT 5SM -TSRA BR SCT020 OVC035CB WS020/23040KT=

USA.gov is the U.S. government's official web portal to all federal, state and local government web resources and services.